Nyk Deneb — 3EOF8 — position and weather

sailwx.info

Track history (hours):
 
Tides and Currents Weather Stations Pressure Air Temp Water Temp Dewpoint Dewpoint Depression Visibility Wind Speed Wind Dir Waves Ship Positions

Nyk Deneb

Last reported at 2016-Apr-30 18:33 UTC. Time now 2016-Apr-30 18:49 UTC.
Position N 34°54' E 139°39'.

Length 294 m; draft 10.9 m.

Type: Ship (hazmat cat B). MMSI: 355717000.

Date/timePositionNaut miles runAvg speedWind from/ knotsBaromVisibWave heightAir tempDewpointWater temp
2016-Apr-30 18:33N 34°54' E 139°39'6916.4
2016-Apr-30 14:21N 34°21' E 138°25'176 6.6
2016-Apr-29 11:34N 33°58' E 134°55'1312.6
2016-Apr-29 10:34N 34°10' E 134°57'1817.2
2016-Apr-29 09:32N 34°26' E 135°05'1717.4
2016-Apr-29 08:33N 34°40' E 135°18'1 1.4
2016-Apr-29 07:33N 34°41' E 135°17'0 0.0
2016-Apr-29 06:27N 34°41' E 135°17'0 0.0
2016-Apr-29 05:27N 34°41' E 135°17'0 0.0
2016-Apr-29 04:21N 34°41' E 135°17'0 0.0
2016-Apr-29 03:33N 34°41' E 135°17'0 0.0
2016-Apr-29 02:33N 34°41' E 135°17'0 0.0
2016-Apr-29 01:33N 34°41' E 135°17'0 0.0
2016-Apr-29 00:21N 34°41' E 135°17'0 0.1
2016-Apr-28 23:33N 34°41' E 135°17'2 2.0
2016-Apr-28 22:33N 34°39' E 135°19'1515.0
2016-Apr-28 21:33N 34°26' E 135°10'1716.5
2016-Apr-28 20:33N 34°12' E 134°59'1110.8
2016-Apr-28 19:33N 34°01' E 134°59'1413.7
2016-Apr-28 18:31N 33°48' E 134°54'  
2016-Apr-24 19:33N 30°37' E 122°59'1413.9
2016-Apr-24 18:33N 30°36' E 122°43'1413.5
2016-Apr-24 17:33N 30°33' E 122°28'1111.1
2016-Apr-24 16:33N 30°33' E 122°15'9 9.2
2016-Apr-24 15:33N 30°36' E 122°05'0 0.0
2016-Apr-23 23:33N 30°36' E 122°05'7 6.4
2016-Apr-23 22:32N 30°34' E 122°12'7 7.5
2016-Apr-23 21:32N 30°33' E 122°21'11 9.9
2016-Apr-23 20:24N 30°30' E 122°33'6 0.1
2016-Apr-22 00:23N 30°26' E 122°38'  
Track history (hours):
 
Tides and Currents Weather Stations Pressure Air Temp Water Temp Dewpoint Dewpoint Depression Visibility Wind Speed Wind Dir Waves Ship Positions

Nyk Deneb

Last reported at 2016-Apr-30 18:33 UTC. Time now 2016-Apr-30 18:49 UTC.
Position N 34°54' E 139°39'.

Length 294 m; draft 10.9 m.

Type: Ship (hazmat cat B). MMSI: 355717000.

Date/timePositionNaut miles runAvg speedWind from/ knotsBaromVisibWave heightAir tempDewpointWater temp
2016-Apr-30 18:33N 34°54' E 139°39'6916.4
2016-Apr-30 14:21N 34°21' E 138°25'176 6.6
2016-Apr-29 11:34N 33°58' E 134°55'1312.6
2016-Apr-29 10:34N 34°10' E 134°57'1817.2
2016-Apr-29 09:32N 34°26' E 135°05'1717.4
2016-Apr-29 08:33N 34°40' E 135°18'1 1.4
2016-Apr-29 07:33N 34°41' E 135°17'0 0.0
2016-Apr-29 06:27N 34°41' E 135°17'0 0.0
2016-Apr-29 05:27N 34°41' E 135°17'0 0.0
2016-Apr-29 04:21N 34°41' E 135°17'0 0.0
2016-Apr-29 03:33N 34°41' E 135°17'0 0.0
2016-Apr-29 02:33N 34°41' E 135°17'0 0.0
2016-Apr-29 01:33N 34°41' E 135°17'0 0.0
2016-Apr-29 00:21N 34°41' E 135°17'0 0.1
2016-Apr-28 23:33N 34°41' E 135°17'2 2.0
2016-Apr-28 22:33N 34°39' E 135°19'1515.0
2016-Apr-28 21:33N 34°26' E 135°10'1716.5
2016-Apr-28 20:33N 34°12' E 134°59'1110.8
2016-Apr-28 19:33N 34°01' E 134°59'1413.7
2016-Apr-28 18:31N 33°48' E 134°54'  
2016-Apr-24 19:33N 30°37' E 122°59'1413.9
2016-Apr-24 18:33N 30°36' E 122°43'1413.5
2016-Apr-24 17:33N 30°33' E 122°28'1111.1
2016-Apr-24 16:33N 30°33' E 122°15'9 9.2
2016-Apr-24 15:33N 30°36' E 122°05'0 0.0
2016-Apr-23 23:33N 30°36' E 122°05'7 6.4
2016-Apr-23 22:32N 30°34' E 122°12'7 7.5
2016-Apr-23 21:32N 30°33' E 122°21'11 9.9
2016-Apr-23 20:24N 30°30' E 122°33'6 0.1
2016-Apr-22 00:23N 30°26' E 122°38'  

Dump ship's entire track history